메인 페이지
METAR-TAF:

METAR-TAF

공항 :

아다나, 터키

위도: 36-59N, 경도: 035-18E, 고도: 20m

현재 날씨관측

예보는 21분 전, 07:50시(UTC)에 발표되었습니다.
북동5kt북북서풍과 남동풍을 오가는
온도 27°C
습도 51%
기압 1017 hPa
시정 10km 이상
고도 3000ft 상공 구름 보통
고도 10000ft 상공 구름 많음

METAR: LTAF 200750Z 05005KT 340V130 9999 SCT030 BKN100 27/16 Q1017 NOSIG RMK RWY23 09004KT 030V140

시각: 11:11 (08:11 UTC)


TAF: 누락

4,000개 이상의 공항 관측 자료 및 예보 (METAR 및 TAF 보고).

지도상에서 검색 가능한 기상관측소가 노란 점과 빨간 점으로 표시되어 있습니다.

기상관측소 명을 보려면 표시 위로 마우스를 이동하세요.

날씨 관측과 예보를 보려면 클릭하세요.

지도 변경 : 확대하려면 엑스 표시가 있는 녹색 버튼, 축소하려면 빼기 표시가 있는 녹색 버튼, 다음 페이지의 지도를 보려면 녹색 화살표를 클릭하세요.


METAR-TAF: